createdAt,value
2023-01-07T00:01:29.076Z,21.10
2023-01-07T00:03:57.252Z,21.20
2023-01-07T00:06:33.261Z,21.10
2023-01-07T00:09:00.412Z,21.10
2023-01-07T00:11:30.043Z,21.10
2023-01-07T00:13:59.216Z,21.10
2023-01-07T00:16:27.203Z,21.10
2023-01-07T00:18:55.653Z,21.00
2023-01-07T00:21:23.887Z,21.00
2023-01-07T00:23:57.247Z,20.90
2023-01-07T00:26:25.885Z,21.00
2023-01-07T00:28:53.621Z,21.00
2023-01-07T00:31:28.577Z,21.00
2023-01-07T00:33:58.876Z,20.90
2023-01-07T00:36:28.138Z,20.90
2023-01-07T00:38:58.918Z,20.90
2023-01-07T00:41:26.463Z,20.90
2023-01-07T00:43:53.380Z,20.80
2023-01-07T00:46:21.733Z,20.80
2023-01-07T00:48:48.736Z,20.90
2023-01-07T00:51:17.036Z,20.90
2023-01-07T00:53:44.013Z,20.90
2023-01-07T00:56:12.328Z,20.90
2023-01-07T00:58:39.448Z,20.90
2023-01-07T01:01:07.151Z,20.80
2023-01-07T01:03:34.677Z,20.80
2023-01-07T01:06:07.650Z,20.80
2023-01-07T01:08:34.559Z,20.80
2023-01-07T01:11:05.832Z,20.80
2023-01-07T01:13:33.139Z,20.80
2023-01-07T01:16:00.260Z,20.80
2023-01-07T01:18:27.215Z,20.80
2023-01-07T01:20:55.032Z,20.80
2023-01-07T01:23:22.412Z,20.80
2023-01-07T01:25:49.429Z,20.70
2023-01-07T01:28:16.466Z,20.80
2023-01-07T01:30:43.337Z,20.70
2023-01-07T01:33:11.410Z,20.80
2023-01-07T01:35:42.281Z,20.70
2023-01-07T01:38:09.727Z,20.70
2023-01-07T01:40:37.589Z,20.70
2023-01-07T01:43:23.445Z,20.70
2023-01-07T01:45:50.405Z,20.70
2023-01-07T01:48:18.139Z,20.70
2023-01-07T01:50:46.791Z,20.70
2023-01-07T01:53:19.949Z,20.70
2023-01-07T01:55:57.496Z,20.70
2023-01-07T01:58:29.550Z,20.70
2023-01-07T02:00:58.783Z,20.70
2023-01-07T02:03:27.683Z,20.70
2023-01-07T02:05:54.693Z,20.60
2023-01-07T02:08:24.506Z,20.60
2023-01-07T02:11:12.814Z,20.60
2023-01-07T02:14:06.568Z,20.60
2023-01-07T02:17:03.404Z,20.60
2023-01-07T02:19:30.205Z,20.60
2023-01-07T02:22:05.803Z,20.50
2023-01-07T02:24:47.773Z,20.50
2023-01-07T02:27:49.344Z,20.50
2023-01-07T02:31:04.132Z,20.50
2023-01-07T02:33:34.372Z,20.50
2023-01-07T02:36:38.606Z,20.50
2023-01-07T02:39:24.312Z,20.50
2023-01-07T02:41:59.768Z,20.40
2023-01-07T02:44:54.083Z,20.40
2023-01-07T02:47:29.831Z,20.50
2023-01-07T02:49:59.884Z,20.40
2023-01-07T02:52:29.074Z,20.40
2023-01-07T02:55:21.489Z,20.40
2023-01-07T02:58:12.917Z,20.40
2023-01-07T03:00:58.244Z,20.40
2023-01-07T03:03:43.565Z,20.40
2023-01-07T03:06:10.368Z,20.40
2023-01-07T03:08:40.327Z,20.30
2023-01-07T03:11:09.690Z,20.40
2023-01-07T03:13:39.401Z,20.30
2023-01-07T03:16:12.799Z,20.30
2023-01-07T03:18:44.953Z,20.40
2023-01-07T03:21:14.097Z,20.40
2023-01-07T03:23:46.022Z,20.30
2023-01-07T03:26:20.110Z,20.30
2023-01-07T03:28:47.178Z,20.30
2023-01-07T03:31:15.446Z,20.30
2023-01-07T03:34:01.776Z,20.30
2023-01-07T03:36:53.076Z,20.30
2023-01-07T03:39:22.836Z,20.30
2023-01-07T03:42:09.728Z,20.30
2023-01-07T03:44:37.430Z,20.30
2023-01-07T03:47:06.347Z,20.30
2023-01-07T03:49:34.363Z,20.30
2023-01-07T03:52:01.704Z,20.30
2023-01-07T03:54:28.716Z,20.30
2023-01-07T03:56:56.116Z,20.30
2023-01-07T03:59:23.209Z,20.30
2023-01-07T04:01:50.438Z,20.30
2023-01-07T04:04:17.898Z,20.20
2023-01-07T04:06:44.864Z,20.20
2023-01-07T04:09:12.571Z,20.30
2023-01-07T04:11:39.540Z,20.30
2023-01-07T04:14:06.493Z,20.20
2023-01-07T04:16:33.754Z,20.20
2023-01-07T04:19:00.973Z,20.30
2023-01-07T04:21:27.902Z,20.20
2023-01-07T04:23:55.055Z,20.20
2023-01-07T04:26:21.932Z,20.20
2023-01-07T04:28:49.233Z,20.20
2023-01-07T04:31:16.289Z,20.20
2023-01-07T04:33:44.051Z,20.20
2023-01-07T04:36:13.267Z,20.20
2023-01-07T04:38:40.356Z,20.20
2023-01-07T04:41:07.396Z,20.20
2023-01-07T04:43:36.114Z,20.20
2023-01-07T04:46:05.307Z,20.10
2023-01-07T04:48:33.562Z,20.10
2023-01-07T04:51:00.638Z,20.10
2023-01-07T04:53:27.615Z,20.10
2023-01-07T04:55:55.466Z,20.10
2023-01-07T04:58:23.237Z,20.10
2023-01-07T05:00:55.502Z,20.10
2023-01-07T05:03:22.623Z,20.10
2023-01-07T05:05:49.899Z,20.10
2023-01-07T05:08:18.420Z,20.10
2023-01-07T05:10:45.379Z,20.10
2023-01-07T05:13:15.826Z,20.10
2023-01-07T05:15:43.450Z,20.10
2023-01-07T05:18:10.367Z,20.00
2023-01-07T05:20:37.545Z,20.10
2023-01-07T05:23:06.403Z,20.00
2023-01-07T05:25:35.111Z,20.00
2023-01-07T05:28:02.264Z,20.00
2023-01-07T05:30:31.689Z,20.00
2023-01-07T05:32:58.688Z,20.00
2023-01-07T05:35:26.142Z,20.00
2023-01-07T05:37:53.067Z,20.00
2023-01-07T05:40:20.597Z,20.00
2023-01-07T05:42:47.622Z,20.00
2023-01-07T05:45:14.628Z,19.90
2023-01-07T05:47:42.992Z,20.00
2023-01-07T05:50:09.989Z,20.00
2023-01-07T05:52:37.250Z,20.00
2023-01-07T05:55:05.048Z,20.00
2023-01-07T05:57:32.071Z,19.90
2023-01-07T05:59:58.923Z,19.90
2023-01-07T06:02:25.805Z,19.90
2023-01-07T06:04:52.760Z,19.90
2023-01-07T06:07:19.655Z,19.90
2023-01-07T06:09:46.496Z,19.90
2023-01-07T06:12:13.389Z,19.90
2023-01-07T06:14:40.295Z,19.90
2023-01-07T06:17:07.286Z,19.90
2023-01-07T06:19:34.146Z,19.90
2023-01-07T06:22:01.001Z,19.90
2023-01-07T06:24:27.935Z,19.90
2023-01-07T06:26:54.812Z,19.90
2023-01-07T06:29:21.714Z,19.90
2023-01-07T06:31:48.570Z,19.90
2023-01-07T06:34:15.499Z,19.80
2023-01-07T06:36:42.351Z,19.90
2023-01-07T06:39:09.211Z,19.80
2023-01-07T06:41:36.061Z,19.80
2023-01-07T06:44:03.017Z,19.80
2023-01-07T06:46:30.298Z,19.80
2023-01-07T06:48:57.252Z,19.80
2023-01-07T06:51:24.147Z,19.80
2023-01-07T06:53:51.104Z,19.80
2023-01-07T06:56:17.976Z,19.80
2023-01-07T06:58:44.777Z,19.80
2023-01-07T07:01:11.922Z,19.80
2023-01-07T07:03:39.037Z,19.80
2023-01-07T07:06:06.365Z,19.80
2023-01-07T07:08:33.459Z,19.80
2023-01-07T07:11:00.351Z,19.80
2023-01-07T07:13:27.160Z,19.80
2023-01-07T07:15:54.144Z,19.80
2023-01-07T07:18:21.238Z,19.80
2023-01-07T07:20:48.552Z,19.80
2023-01-07T07:23:15.814Z,19.70
2023-01-07T07:25:43.137Z,19.70
2023-01-07T07:28:10.066Z,19.70
2023-01-07T07:30:46.326Z,19.70
2023-01-07T07:33:15.545Z,19.70
2023-01-07T07:35:42.514Z,19.70
2023-01-07T07:38:09.477Z,19.70
2023-01-07T07:40:36.506Z,19.70
2023-01-07T07:43:11.994Z,19.70
2023-01-07T07:45:43.050Z,19.70
2023-01-07T07:48:12.203Z,19.70
2023-01-07T07:50:39.204Z,19.70
2023-01-07T07:53:09.924Z,19.70
2023-01-07T07:55:38.146Z,19.60
2023-01-07T07:58:05.439Z,19.60
2023-01-07T08:00:32.835Z,19.70
2023-01-07T08:03:00.525Z,19.60
2023-01-07T08:05:28.399Z,19.60
2023-01-07T08:07:56.103Z,19.60
2023-01-07T08:10:23.180Z,19.60
2023-01-07T08:12:50.772Z,19.60
2023-01-07T08:15:18.388Z,19.60
2023-01-07T08:17:45.263Z,19.50
2023-01-07T08:20:12.976Z,19.50
2023-01-07T08:22:39.907Z,19.50
2023-01-07T08:25:07.208Z,19.50
2023-01-07T08:27:34.509Z,19.60
2023-01-07T08:30:01.540Z,19.50
2023-01-07T08:32:28.391Z,19.60
2023-01-07T08:34:56.074Z,19.60
2023-01-07T08:37:22.961Z,19.70
2023-01-07T08:39:49.864Z,19.70
2023-01-07T08:42:16.774Z,19.70
2023-01-07T08:44:44.011Z,19.80
2023-01-07T08:47:10.874Z,19.80
2023-01-07T08:49:37.723Z,19.80
2023-01-07T08:52:04.862Z,19.90
2023-01-07T08:54:31.787Z,19.80
2023-01-07T08:56:58.710Z,19.90
2023-01-07T08:59:25.574Z,20.00
2023-01-07T09:01:52.598Z,20.00
2023-01-07T09:04:19.586Z,20.00
2023-01-07T09:06:46.616Z,20.00
2023-01-07T09:09:16.556Z,20.10
2023-01-07T09:11:43.593Z,20.10
2023-01-07T09:14:11.904Z,20.10
2023-01-07T09:16:38.847Z,20.10
2023-01-07T09:19:05.742Z,20.20
2023-01-07T09:21:32.723Z,20.20
2023-01-07T09:23:59.699Z,20.20
2023-01-07T09:26:26.575Z,20.30
2023-01-07T09:28:53.487Z,20.30
2023-01-07T09:31:20.469Z,20.30
2023-01-07T09:33:47.504Z,20.40
2023-01-07T09:36:14.440Z,20.40
2023-01-07T09:38:41.326Z,20.40
2023-01-07T09:41:43.755Z,20.50
2023-01-07T09:44:36.126Z,20.50
2023-01-07T09:47:03.951Z,20.50
2023-01-07T09:49:33.010Z,20.50
2023-01-07T09:52:13.798Z,20.50
2023-01-07T09:54:41.258Z,20.50
2023-01-07T09:57:11.864Z,20.50
2023-01-07T09:59:38.750Z,20.50
2023-01-07T10:02:26.293Z,20.50
2023-01-07T10:05:24.528Z,20.60
2023-01-07T10:08:30.753Z,20.60
2023-01-07T10:10:58.578Z,20.50
2023-01-07T10:13:45.774Z,20.50
2023-01-07T10:16:18.422Z,20.50
2023-01-07T10:19:03.685Z,20.50
2023-01-07T10:21:43.203Z,20.50
2023-01-07T10:24:21.775Z,20.50
2023-01-07T10:26:51.738Z,20.50
2023-01-07T10:29:43.085Z,20.50
2023-01-07T10:32:18.563Z,20.60
2023-01-07T10:34:50.920Z,20.50
2023-01-07T10:37:33.764Z,20.50
2023-01-07T10:40:16.149Z,20.50
2023-01-07T10:42:57.726Z,20.50
2023-01-07T10:45:43.194Z,20.60
2023-01-07T10:48:28.444Z,20.50
2023-01-07T10:51:01.118Z,20.50
2023-01-07T10:53:36.607Z,20.50
2023-01-07T10:56:25.420Z,20.50
2023-01-07T10:58:52.509Z,20.50
2023-01-07T11:01:33.738Z,20.50
2023-01-07T11:04:01.428Z,20.50
2023-01-07T11:06:51.258Z,20.50
2023-01-07T11:09:44.303Z,20.50
2023-01-07T11:12:48.204Z,20.50
2023-01-07T11:15:38.117Z,20.50
2023-01-07T11:18:24.747Z,20.50
2023-01-07T11:20:54.167Z,20.50
2023-01-07T11:23:42.857Z,20.50
2023-01-07T11:26:28.801Z,20.50
2023-01-07T11:28:56.864Z,20.50
2023-01-07T11:31:52.997Z,20.50
2023-01-07T11:34:27.106Z,20.50
2023-01-07T11:36:54.669Z,20.50
2023-01-07T11:39:24.213Z,20.50
2023-01-07T11:41:57.641Z,20.50
2023-01-07T11:44:25.365Z,20.50
2023-01-07T11:46:52.638Z,20.50
2023-01-07T11:49:26.914Z,20.50
2023-01-07T11:51:54.167Z,20.50
2023-01-07T11:54:26.150Z,20.50
2023-01-07T11:56:55.056Z,20.50
2023-01-07T11:59:22.196Z,20.50
2023-01-07T12:01:51.033Z,20.40
2023-01-07T12:04:25.186Z,20.40
2023-01-07T12:07:06.842Z,20.40
2023-01-07T12:09:36.594Z,20.40
2023-01-07T12:12:31.892Z,20.40
2023-01-07T12:15:05.691Z,20.50
2023-01-07T12:17:34.686Z,20.50
2023-01-07T12:20:13.487Z,20.40
2023-01-07T12:22:59.891Z,20.50
2023-01-07T12:25:56.540Z,20.50
2023-01-07T12:28:41.781Z,20.50
2023-01-07T12:31:18.205Z,20.50
2023-01-07T12:34:13.372Z,20.50
2023-01-07T12:36:43.002Z,20.50
2023-01-07T12:39:22.065Z,20.50
2023-01-07T12:42:02.802Z,20.50
2023-01-07T12:44:29.943Z,20.50
2023-01-07T12:47:31.180Z,20.40
2023-01-07T12:50:16.666Z,20.50
2023-01-07T12:52:51.551Z,20.50
2023-01-07T12:55:18.779Z,20.50
2023-01-07T12:58:09.008Z,20.40
2023-01-07T13:00:44.356Z,20.50
2023-01-07T13:03:37.684Z,20.50
2023-01-07T13:06:14.697Z,20.50
2023-01-07T13:08:55.685Z,20.50
2023-01-07T13:11:55.477Z,20.50
2023-01-07T13:14:25.995Z,20.50
2023-01-07T13:16:55.649Z,20.40
2023-01-07T13:19:22.474Z,20.40
2023-01-07T13:21:49.700Z,20.40
2023-01-07T13:24:56.268Z,20.40
2023-01-07T13:27:52.332Z,20.40
2023-01-07T13:30:40.786Z,20.40
2023-01-07T13:33:07.614Z,20.40
2023-01-07T13:35:57.534Z,20.30
2023-01-07T13:38:27.475Z,20.40
2023-01-07T13:41:27.482Z,20.30
2023-01-07T13:44:21.853Z,20.30
2023-01-07T13:46:49.019Z,20.30
2023-01-07T13:49:30.438Z,20.30
2023-01-07T13:52:16.734Z,20.30
2023-01-07T13:54:50.409Z,20.30
2023-01-07T13:57:26.688Z,20.30
2023-01-07T13:59:56.003Z,20.30
2023-01-07T14:02:23.968Z,20.20
2023-01-07T14:05:04.963Z,20.20
2023-01-07T14:07:32.817Z,20.20
2023-01-07T14:09:59.720Z,20.20
2023-01-07T14:12:57.343Z,20.20
2023-01-07T14:15:53.511Z,20.20
2023-01-07T14:18:39.211Z,20.20
2023-01-07T14:21:28.823Z,20.20
2023-01-07T14:24:13.724Z,20.20
2023-01-07T14:27:05.869Z,20.30
2023-01-07T14:29:41.654Z,20.30
2023-01-07T14:32:30.477Z,20.30
2023-01-07T14:35:19.701Z,20.40
2023-01-07T14:37:47.256Z,20.40
2023-01-07T14:40:26.455Z,20.30
2023-01-07T14:42:53.482Z,20.30
2023-01-07T14:45:38.991Z,20.30
2023-01-07T14:48:08.699Z,20.30
2023-01-07T14:50:56.656Z,20.30
2023-01-07T14:53:53.952Z,20.40
2023-01-07T14:56:43.904Z,20.40
2023-01-07T14:59:38.770Z,20.40
2023-01-07T15:02:42.858Z,20.50
2023-01-07T15:05:25.583Z,20.50
2023-01-07T15:08:17.367Z,20.50
2023-01-07T15:11:03.330Z,20.50
2023-01-07T15:13:49.016Z,20.50
2023-01-07T15:16:19.406Z,20.50
2023-01-07T15:18:49.292Z,20.50
2023-01-07T15:21:40.507Z,20.50
2023-01-07T15:24:07.488Z,20.50
2023-01-07T15:26:40.192Z,20.50
2023-01-07T15:29:28.562Z,20.50
2023-01-07T15:32:21.849Z,20.50
2023-01-07T15:34:48.831Z,20.50
2023-01-07T15:37:16.521Z,20.50
2023-01-07T15:39:50.280Z,20.50
2023-01-07T15:42:20.396Z,20.50
2023-01-07T15:44:52.866Z,20.50
2023-01-07T15:47:40.955Z,20.50
2023-01-07T15:50:30.464Z,20.50
2023-01-07T15:53:16.769Z,20.50
2023-01-07T15:55:50.408Z,20.50
2023-01-07T15:58:20.593Z,20.50
2023-01-07T16:00:55.075Z,20.50
2023-01-07T16:03:22.398Z,20.50
2023-01-07T16:05:49.624Z,20.50
2023-01-07T16:08:32.186Z,20.50
2023-01-07T16:10:59.083Z,20.50
2023-01-07T16:13:25.981Z,20.50
2023-01-07T16:15:55.590Z,20.50
2023-01-07T16:18:22.356Z,20.60
2023-01-07T16:21:12.258Z,20.60
2023-01-07T16:23:39.974Z,20.60
2023-01-07T16:26:15.517Z,20.60
2023-01-07T16:29:10.323Z,20.60
2023-01-07T16:31:37.697Z,20.70
2023-01-07T16:34:23.822Z,20.60
2023-01-07T16:37:00.661Z,20.60
2023-01-07T16:39:30.114Z,20.60
2023-01-07T16:42:15.515Z,20.60
2023-01-07T16:44:45.426Z,20.60
2023-01-07T16:47:24.603Z,20.60
2023-01-07T16:49:51.801Z,20.60
2023-01-07T16:52:23.319Z,20.60
2023-01-07T16:54:50.544Z,20.50
2023-01-07T16:57:26.251Z,20.50
2023-01-07T16:59:55.609Z,20.50
2023-01-07T17:02:28.435Z,20.60
2023-01-07T17:05:21.584Z,20.60
2023-01-07T17:07:51.512Z,20.60
2023-01-07T17:10:48.993Z,20.50
2023-01-07T17:13:15.867Z,20.50
2023-01-07T17:15:43.780Z,20.50
2023-01-07T17:18:16.446Z,20.50
2023-01-07T17:20:54.514Z,20.50
2023-01-07T17:23:27.547Z,20.50
2023-01-07T17:26:04.558Z,20.50
2023-01-07T17:28:33.404Z,20.50
2023-01-07T17:31:01.004Z,20.50
2023-01-07T17:33:28.184Z,20.60
2023-01-07T17:35:57.364Z,20.60
2023-01-07T17:38:24.220Z,20.60
2023-01-07T17:40:52.019Z,20.50
2023-01-07T17:43:35.811Z,20.50
2023-01-07T17:46:08.707Z,20.50
2023-01-07T17:48:35.953Z,20.60
2023-01-07T17:51:04.509Z,20.70
2023-01-07T17:53:39.192Z,20.70
2023-01-07T17:56:06.455Z,20.70
2023-01-07T17:58:35.613Z,20.60
2023-01-07T18:01:06.522Z,20.70
2023-01-07T18:03:33.721Z,20.70
2023-01-07T18:06:00.767Z,20.70
2023-01-07T18:08:27.866Z,20.70
2023-01-07T18:11:14.534Z,20.70
2023-01-07T18:13:41.834Z,20.70
2023-01-07T18:16:12.334Z,20.70
2023-01-07T18:18:39.419Z,20.70
2023-01-07T18:21:06.377Z,20.70
2023-01-07T18:23:33.234Z,20.70
2023-01-07T18:26:00.123Z,20.70
2023-01-07T18:28:27.024Z,20.70
2023-01-07T18:30:53.911Z,20.70
2023-01-07T18:33:20.864Z,20.70
2023-01-07T18:35:48.011Z,20.70
2023-01-07T18:38:16.576Z,20.70
2023-01-07T18:40:44.034Z,20.70
2023-01-07T18:43:16.501Z,20.70
2023-01-07T18:45:44.631Z,20.70
2023-01-07T18:48:12.896Z,20.70
2023-01-07T18:50:48.251Z,20.70
2023-01-07T18:53:16.275Z,20.70
2023-01-07T18:55:43.971Z,20.70
2023-01-07T18:58:13.211Z,20.70
2023-01-07T19:00:40.202Z,20.70
2023-01-07T19:03:07.174Z,20.70
2023-01-07T19:05:34.178Z,20.60
2023-01-07T19:08:01.066Z,20.60
2023-01-07T19:10:28.061Z,20.60
2023-01-07T19:12:54.923Z,20.70
2023-01-07T19:15:21.800Z,20.70
2023-01-07T19:17:48.681Z,20.70
2023-01-07T19:20:16.453Z,20.70
2023-01-07T19:22:43.391Z,20.70
2023-01-07T19:25:10.839Z,20.70
2023-01-07T19:27:37.784Z,20.70
2023-01-07T19:30:05.791Z,20.70
2023-01-07T19:32:32.692Z,20.70
2023-01-07T19:34:59.642Z,20.80
2023-01-07T19:37:26.559Z,20.70
2023-01-07T19:39:53.545Z,20.70
2023-01-07T19:42:20.421Z,20.70
2023-01-07T19:44:47.265Z,20.70
2023-01-07T19:47:16.549Z,20.70
2023-01-07T19:49:45.217Z,20.70
2023-01-07T19:52:13.551Z,20.70
2023-01-07T19:54:41.788Z,20.50
2023-01-07T19:57:08.965Z,20.50
2023-01-07T19:59:36.392Z,20.60
2023-01-07T20:02:03.927Z,20.60
2023-01-07T20:04:30.879Z,20.50
2023-01-07T20:06:57.788Z,20.50
2023-01-07T20:09:24.731Z,20.50
2023-01-07T20:11:51.682Z,20.50
2023-01-07T20:14:18.644Z,20.50
2023-01-07T20:16:45.790Z,20.50
2023-01-07T20:19:12.838Z,20.50
2023-01-07T20:21:40.031Z,20.50
2023-01-07T20:24:07.291Z,20.50
2023-01-07T20:26:37.897Z,20.50
2023-01-07T20:29:05.035Z,20.50
2023-01-07T20:31:31.918Z,20.50
2023-01-07T20:33:59.634Z,20.50
2023-01-07T20:36:29.013Z,20.50
2023-01-07T20:38:57.110Z,20.40
2023-01-07T20:41:27.873Z,20.40
2023-01-07T20:43:56.906Z,20.50
2023-01-07T20:46:25.044Z,20.40
2023-01-07T20:48:52.019Z,20.40
2023-01-07T20:51:19.303Z,20.40
2023-01-07T20:53:49.499Z,20.30
2023-01-07T20:56:19.222Z,20.30
2023-01-07T20:58:46.521Z,20.30
2023-01-07T21:01:15.547Z,20.30
2023-01-07T21:03:42.916Z,20.30
2023-01-07T21:06:11.882Z,20.20
2023-01-07T21:08:39.394Z,20.30
2023-01-07T21:11:14.725Z,20.20
2023-01-07T21:13:42.620Z,20.20
2023-01-07T21:16:09.947Z,20.20
2023-01-07T21:18:37.051Z,20.20
2023-01-07T21:21:10.301Z,20.20
2023-01-07T21:23:37.251Z,20.20
2023-01-07T21:26:05.685Z,20.20
2023-01-07T21:28:33.233Z,20.20
2023-01-07T21:31:06.121Z,20.20
2023-01-07T21:33:33.563Z,20.20
2023-01-07T21:36:00.597Z,20.20
2023-01-07T21:38:27.456Z,20.20
2023-01-07T21:40:54.440Z,20.20
2023-01-07T21:43:21.347Z,20.20
2023-01-07T21:45:48.204Z,20.20
2023-01-07T21:48:15.163Z,20.20
2023-01-07T21:50:42.074Z,20.30
2023-01-07T21:53:08.943Z,20.30
2023-01-07T21:55:39.596Z,20.20
2023-01-07T21:58:06.546Z,20.20
2023-01-07T22:00:33.376Z,20.30
2023-01-07T22:03:00.315Z,20.20
2023-01-07T22:05:27.222Z,20.20
2023-01-07T22:07:54.096Z,20.20
2023-01-07T22:10:21.026Z,20.20
2023-01-07T22:12:47.923Z,20.20
2023-01-07T22:15:14.892Z,20.20
2023-01-07T22:17:41.738Z,20.20
2023-01-07T22:20:09.352Z,20.20
2023-01-07T22:22:36.232Z,20.20
2023-01-07T22:25:03.147Z,20.20
2023-01-07T22:27:30.049Z,20.20
2023-01-07T22:29:57.703Z,20.20
2023-01-07T22:32:24.602Z,20.20
2023-01-07T22:34:51.466Z,20.20
2023-01-07T22:37:19.319Z,20.20
2023-01-07T22:39:50.464Z,20.20
2023-01-07T22:42:37.209Z,20.20
2023-01-07T22:45:30.701Z,20.20
2023-01-07T22:47:57.750Z,20.20
2023-01-07T22:50:24.657Z,20.20
2023-01-07T22:52:51.753Z,20.10
2023-01-07T22:55:19.030Z,20.20
2023-01-07T22:57:45.930Z,20.20
2023-01-07T23:00:37.142Z,20.20
2023-01-07T23:03:04.295Z,20.20
2023-01-07T23:05:31.232Z,20.10
2023-01-07T23:07:58.830Z,20.10
2023-01-07T23:10:25.678Z,20.20
2023-01-07T23:12:52.574Z,20.10
2023-01-07T23:15:19.518Z,20.10
2023-01-07T23:17:46.428Z,20.10
2023-01-07T23:20:13.275Z,20.10
2023-01-07T23:22:40.125Z,20.10
2023-01-07T23:25:07.671Z,20.10
2023-01-07T23:27:34.621Z,20.10
2023-01-07T23:30:01.537Z,20.10
2023-01-07T23:32:28.448Z,20.10
2023-01-07T23:34:55.568Z,20.10
2023-01-07T23:37:22.607Z,20.10
2023-01-07T23:39:49.502Z,20.10
2023-01-07T23:42:16.399Z,20.10
2023-01-07T23:44:43.373Z,20.10
2023-01-07T23:47:10.281Z,20.20
2023-01-07T23:49:37.926Z,20.10
2023-01-07T23:52:04.948Z,20.10
2023-01-07T23:54:31.809Z,20.10
2023-01-07T23:56:58.782Z,20.10
2023-01-07T23:59:25.764Z,20.10
